Time;durP1;ratioP1;P1;durP2;ratioP2;P2;SDS_P1;SDS_P2;PMS_P1;PMS_P2;Temp;Humidity;BMP_temperature;BMP_pressure;BME280_temperature;BME280_humidity;BME280_pressure;Samples;Min_cycle;Max_cycle;Signal;HPM_P1;HPM_P2
2021/01/28 00:01:22;;;;;;;33.27;15.03;;;;;;;1.39;100.00;96014.91;5017692;28;20209;-71
2021/01/28 00:03:48;;;;;;;36.60;16.23;;;;;;;1.40;100.00;96008.78;5017100;28;20590;-71
2021/01/28 00:06:14;;;;;;;33.53;15.20;;;;;;;1.43;100.00;96005.91;5017774;28;20206;-72
2021/01/28 00:08:42;;;;;;;35.57;16.63;;;;;;;1.45;100.00;96009.22;5017442;28;20606;-71
2021/01/28 00:11:09;;;;;;;33.97;14.60;;;;;;;1.41;100.00;95991.41;5017495;28;20209;-71
2021/01/28 00:13:35;;;;;;;32.47;15.83;;;;;;;1.41;100.00;95992.25;5017642;28;20208;-72
2021/01/28 00:16:01;;;;;;;35.20;15.40;;;;;;;1.34;100.00;95990.28;5016763;28;20547;-71
2021/01/28 00:18:27;;;;;;;31.07;15.07;;;;;;;1.34;100.00;95983.31;5017061;28;20232;-71
2021/01/28 00:20:53;;;;;;;37.33;16.07;;;;;;;1.34;100.00;95979.91;5017763;28;20211;-71
2021/01/28 00:23:19;;;;;;;25.50;11.40;;;;;;;1.36;100.00;95986.63;5017431;28;20219;-71
2021/01/28 00:25:47;;;;;;;34.40;16.53;;;;;;;1.32;100.00;95982.66;5016607;28;20993;-72
2021/01/28 00:28:16;;;;;;;37.03;16.37;;;;;;;1.38;100.00;95987.31;5017561;28;20225;-72
2021/01/28 00:30:44;;;;;;;38.60;17.03;;;;;;;1.35;100.00;95984.97;5017309;28;20211;-71
2021/01/28 00:33:12;;;;;;;35.00;15.80;;;;;;;1.40;100.00;95987.16;5016375;28;20199;-72
2021/01/28 00:35:40;;;;;;;34.23;15.77;;;;;;;1.46;100.00;95984.88;5016066;28;20201;-72
2021/01/28 00:38:09;;;;;;;34.17;15.97;;;;;;;1.43;100.00;95987.75;5017314;28;20228;-72
2021/01/28 00:40:36;;;;;;;32.80;15.60;;;;;;;1.42;100.00;95978.31;5017055;28;20203;-71
2021/01/28 00:43:02;;;;;;;32.57;14.97;;;;;;;1.39;100.00;95986.34;5016954;28;20226;-71
2021/01/28 00:45:31;;;;;;;34.50;15.30;;;;;;;1.39;100.00;95983.75;5016537;28;20206;-71
2021/01/28 00:47:57;;;;;;;34.63;16.53;;;;;;;1.43;100.00;95990.34;5017234;28;20227;-72
2021/01/28 00:50:27;;;;;;;34.47;15.40;;;;;;;1.46;100.00;95984.88;5016738;28;20231;-72
2021/01/28 00:52:53;;;;;;;31.87;14.57;;;;;;;1.47;100.00;95985.72;5016939;28;20222;-71
2021/01/28 00:55:20;;;;;;;34.13;15.60;;;;;;;1.44;100.00;95986.81;5016501;28;20374;-72
2021/01/28 00:57:46;;;;;;;24.17;11.00;;;;;;;1.45;100.00;95977.22;5016717;28;20331;-72
2021/01/28 01:00:15;;;;;;;34.60;15.00;;;;;;;1.46;100.00;95992.66;5016851;28;20208;-72
2021/01/28 01:02:43;;;;;;;32.03;15.17;;;;;;;1.43;100.00;95992.94;5016512;28;20290;-72
2021/01/28 01:05:10;;;;;;;35.80;15.87;;;;;;;1.40;100.00;95989.75;5015809;28;20710;-72
2021/01/28 01:07:36;;;;;;;32.93;14.60;;;;;;;1.45;100.00;95990.22;5017072;28;20225;-71
2021/01/28 01:10:04;;;;;;;25.37;11.30;;;;;;;1.43;100.00;95987.75;5017106;28;21101;-71
2021/01/28 01:12:30;;;;;;;33.17;15.27;;;;;;;1.43;100.00;95974.75;5016276;28;20199;-71
2021/01/28 01:14:56;;;;;;;31.40;13.27;;;;;;;1.38;100.00;95982.13;5016344;28;20745;-71
2021/01/28 01:17:22;;;;;;;32.90;13.43;;;;;;;1.43;100.00;95977.34;5016266;28;20239;-71
2021/01/28 01:19:49;;;;;;;30.67;12.70;;;;;;;1.52;100.00;95978.38;5016813;28;20204;-72
2021/01/28 01:22:15;;;;;;;29.90;13.27;;;;;;;1.48;100.00;95977.00;5016481;28;20736;-72
2021/01/28 01:24:41;;;;;;;29.13;13.87;;;;;;;1.49;100.00;95974.25;5016325;28;20717;-72
2021/01/28 01:27:07;;;;;;;30.67;13.93;;;;;;;1.41;100.00;95976.69;5015729;28;20220;-71
2021/01/28 01:29:33;;;;;;;32.83;14.50;;;;;;;1.45;100.00;95975.47;5016138;28;20215;-71
2021/01/28 01:32:00;;;;;;;29.43;12.67;;;;;;;1.41;100.00;95961.13;5016798;28;20292;-72
2021/01/28 01:34:26;;;;;;;30.50;13.37;;;;;;;1.47;100.00;95962.34;5016519;28;20266;-71
2021/01/28 01:36:52;;;;;;;31.37;13.77;;;;;;;1.45;100.00;95957.31;5015205;28;20306;-72
2021/01/28 01:39:18;;;;;;;26.57;11.93;;;;;;;1.46;100.00;95960.72;5016726;28;20204;-72
2021/01/28 01:41:44;;;;;;;29.53;13.07;;;;;;;1.49;100.00;95960.44;5016004;28;20245;-71
2021/01/28 01:44:10;;;;;;;29.03;13.50;;;;;;;1.45;100.00;95951.28;5016382;28;20199;-72
2021/01/28 01:46:37;;;;;;;28.67;12.40;;;;;;;1.47;100.00;95955.38;5018127;28;20251;-71
2021/01/28 01:49:08;;;;;;;28.10;12.90;;;;;;;1.48;100.00;95956.22;5020177;28;20212;-72
2021/01/28 01:51:37;;;;;;;32.17;13.43;;;;;;;1.46;100.00;95951.13;5019938;28;20204;-71
2021/01/28 01:54:09;;;;;;;30.77;12.57;;;;;;;1.51;100.00;95964.56;5020192;28;21037;-71
2021/01/28 01:56:37;;;;;;;30.53;13.43;;;;;;;1.53;100.00;95954.06;5019711;28;20208;-71
2021/01/28 01:59:06;;;;;;;31.07;12.97;;;;;;;1.60;100.00;95950.78;5020126;28;20201;-71
2021/01/28 02:01:37;;;;;;;28.43;12.23;;;;;;;1.58;100.00;95954.47;5020042;28;20215;-71
2021/01/28 02:04:03;;;;;;;26.77;12.77;;;;;;;1.63;100.00;95955.75;5020373;28;20215;-71
2021/01/28 02:06:35;;;;;;;27.27;11.83;;;;;;;1.57;100.00;95953.66;5019205;28;20209;-71
2021/01/28 02:09:02;;;;;;;31.40;12.57;;;;;;;1.56;100.00;95948.59;5019938;28;20220;-72
2021/01/28 02:11:29;;;;;;;24.97;10.87;;;;;;;1.59;100.00;95943.13;5020304;28;20209;-72
2021/01/28 02:13:59;;;;;;;27.17;12.60;;;;;;;1.58;100.00;95941.50;5019389;28;20209;-71
2021/01/28 02:16:29;;;;;;;27.53;11.57;;;;;;;1.60;100.00;95937.00;5018476;28;20208;-71
2021/01/28 02:18:56;;;;;;;28.90;12.13;;;;;;;1.61;100.00;95930.88;5019782;28;20197;-71
2021/01/28 02:21:25;;;;;;;26.13;12.47;;;;;;;1.60;100.00;95927.44;5020059;28;20204;-72
2021/01/28 02:24:19;;;;;;;26.40;12.17;;;;;;;1.66;100.00;95921.72;5019319;28;20227;-71
2021/01/28 02:26:49;;;;;;;30.20;13.07;;;;;;;1.65;100.00;95912.28;5018757;28;20229;-72
2021/01/28 02:29:15;;;;;;;24.63;9.70;;;;;;;1.62;100.00;95911.75;5019797;28;20261;-71
2021/01/28 02:31:45;;;;;;;31.93;13.10;;;;;;;1.67;100.00;95907.78;5018975;28;20208;-71
2021/01/28 02:34:12;;;;;;;28.50;12.80;;;;;;;1.66;100.00;95903.53;5019579;28;20209;-72
2021/01/28 02:36:40;;;;;;;31.10;13.30;;;;;;;1.62;100.00;95902.16;5019028;28;20699;-71
2021/01/28 02:39:07;;;;;;;28.93;12.70;;;;;;;1.66;100.00;95894.94;5019064;28;20209;-72
2021/01/28 02:41:34;;;;;;;29.87;13.13;;;;;;;1.65;100.00;95896.69;5019224;28;20202;-72
2021/01/28 02:44:01;;;;;;;30.40;12.60;;;;;;;1.71;100.00;95895.38;5019159;28;20204;-71
2021/01/28 02:46:27;;;;;;;30.37;13.70;;;;;;;1.67;100.00;95893.97;5018335;28;20216;-71
2021/01/28 02:48:54;;;;;;;31.30;12.93;;;;;;;1.68;100.00;95895.63;5019379;28;20767;-71
2021/01/28 02:51:21;;;;;;;27.23;12.23;;;;;;;1.69;100.00;95900.66;5019364;28;20205;-71
2021/01/28 02:53:49;;;;;;;28.67;12.67;;;;;;;1.67;100.00;95888.78;5018821;28;20214;-72
2021/01/28 02:56:16;;;;;;;29.47;13.33;;;;;;;1.67;100.00;95880.97;5017485;28;20202;-72
2021/01/28 02:58:42;;;;;;;32.80;14.03;;;;;;;1.68;100.00;95875.69;5018859;28;20279;-72
2021/01/28 03:01:11;;;;;;;29.40;12.60;;;;;;;1.71;100.00;95872.00;5019116;28;20217;-71
2021/01/28 03:03:37;;;;;;;34.10;13.80;;;;;;;1.71;100.00;95866.81;5018553;28;20240;-73
2021/01/28 03:06:05;;;;;;;31.07;13.17;;;;;;;1.73;100.00;95868.28;5018473;28;20194;-71
2021/01/28 03:08:32;;;;;;;35.70;14.80;;;;;;;1.69;100.00;95864.31;5018804;28;21091;-71
2021/01/28 03:10:58;;;;;;;33.87;13.57;;;;;;;1.66;100.00;95862.00;5018346;28;21140;-70
2021/01/28 03:13:25;;;;;;;33.03;13.90;;;;;;;1.66;100.00;95856.81;5018857;28;20205;-72
2021/01/28 03:15:51;;;;;;;32.30;13.27;;;;;;;1.65;100.00;95859.53;5018365;28;20204;-71
2021/01/28 03:18:18;;;;;;;28.20;11.93;;;;;;;1.69;100.00;95859.13;5018243;28;20217;-71
2021/01/28 03:20:44;;;;;;;31.07;13.13;;;;;;;1.71;100.00;95854.63;5018928;28;20221;-71
2021/01/28 03:23:10;;;;;;;30.23;12.83;;;;;;;1.68;100.00;95860.09;5018606;28;20937;-70
2021/01/28 03:25:37;;;;;;;27.37;11.77;;;;;;;1.70;100.00;95858.16;5017322;28;21157;-71
2021/01/28 03:28:04;;;;;;;32.90;13.90;;;;;;;1.69;100.00;95856.53;5018729;28;20232;-71
2021/01/28 03:30:33;;;;;;;34.63;14.33;;;;;;;1.72;100.00;95856.28;5019162;28;20672;-71
2021/01/28 03:33:00;;;;;;;32.47;13.17;;;;;;;1.70;100.00;95846.97;5016381;28;21157;-71
2021/01/28 03:35:27;;;;;;;36.40;14.50;;;;;;;1.71;100.00;95849.44;5017109;28;20228;-70
2021/01/28 03:37:53;;;;;;;36.10;15.03;;;;;;;1.69;100.00;95838.34;5018818;28;20241;-71
2021/01/28 03:40:21;;;;;;;34.37;14.10;;;;;;;1.69;100.00;95842.72;5018055;28;20211;-71
2021/01/28 03:42:47;;;;;;;34.83;14.37;;;;;;;1.70;100.00;95847.78;5017941;28;20240;-71
2021/01/28 03:45:14;;;;;;;34.87;13.57;;;;;;;1.72;100.00;95840.69;5017743;28;20216;-72
2021/01/28 03:47:40;;;;;;;31.57;14.17;;;;;;;1.77;100.00;95838.53;5018000;28;20228;-71
2021/01/28 03:50:08;;;;;;;30.53;13.03;;;;;;;1.78;100.00;95823.75;5017921;28;20203;-71
2021/01/28 03:52:35;;;;;;;34.20;13.67;;;;;;;1.82;100.00;95831.16;5017889;28;21153;-71
2021/01/28 03:55:01;;;;;;;34.83;14.23;;;;;;;1.80;100.00;95820.88;5017365;28;20259;-71
2021/01/28 03:57:27;;;;;;;32.77;14.10;;;;;;;1.78;100.00;95827.16;5017764;28;20243;-72
2021/01/28 03:59:53;;;;;;;40.17;14.47;;;;;;;1.76;100.00;95830.84;5017682;28;20232;-72
2021/01/28 04:02:19;;;;;;;35.77;14.43;;;;;;;1.75;100.00;95824.03;5017894;28;20607;-71
2021/01/28 04:04:45;;;;;;;41.90;14.80;;;;;;;1.75;100.00;95822.25;5017333;28;20208;-71
2021/01/28 04:07:11;;;;;;;27.33;10.70;;;;;;;1.82;100.00;95815.56;5016831;28;20236;-71
2021/01/28 04:09:38;;;;;;;36.27;13.87;;;;;;;1.82;100.00;95815.56;5016863;28;20221;-71
2021/01/28 04:12:04;;;;;;;38.70;15.57;;;;;;;1.78;100.00;95803.78;5017730;28;20204;-71
2021/01/28 04:14:30;;;;;;;45.67;17.13;;;;;;;1.81;100.00;95798.34;5017284;28;20209;-72
2021/01/28 04:16:56;;;;;;;61.07;20.40;;;;;;;1.80;100.00;95796.69;5016761;28;20276;-71
2021/01/28 04:19:22;;;;;;;62.73;22.40;;;;;;;1.78;100.00;95783.00;5017602;28;20486;-71
2021/01/28 04:21:48;;;;;;;64.70;23.67;;;;;;;1.77;100.00;95771.00;5016864;28;20271;-72
2021/01/28 04:24:15;;;;;;;78.83;26.67;;;;;;;1.78;100.00;95761.41;5017597;28;20295;-71
2021/01/28 04:26:43;;;;;;;55.87;20.70;;;;;;;1.76;100.00;95766.75;5016533;28;20295;-71
2021/01/28 04:29:09;;;;;;;58.97;22.23;;;;;;;1.75;100.00;95749.53;5017187;28;20210;-72
2021/01/28 04:31:35;;;;;;;69.90;23.83;;;;;;;1.77;100.00;95741.59;5017323;28;20293;-71
2021/01/28 04:34:01;;;;;;;62.20;23.10;;;;;;;1.82;100.00;95732.47;5017520;28;20207;-72
2021/01/28 04:36:27;;;;;;;51.83;18.93;;;;;;;1.80;100.00;95723.97;5016455;28;20204;-72
2021/01/28 04:38:54;;;;;;;47.50;16.73;;;;;;;1.79;100.00;95717.13;5016773;28;20238;-72
2021/01/28 04:41:22;;;;;;;50.03;17.33;;;;;;;1.82;100.00;95712.50;5018092;28;20220;-71
2021/01/28 04:43:51;;;;;;;50.07;17.83;;;;;;;1.86;100.00;95708.66;5016936;28;20225;-71
2021/01/28 04:46:24;;;;;;;49.13;17.03;;;;;;;1.81;100.00;95710.03;5016102;28;20212;-72
2021/01/28 04:48:51;;;;;;;50.30;17.33;;;;;;;1.82;100.00;95709.88;5016994;28;20228;-72
2021/01/28 04:51:17;;;;;;;42.00;16.37;;;;;;;1.84;100.00;95705.34;5017452;28;20219;-72
2021/01/28 04:53:51;;;;;;;45.07;17.53;;;;;;;1.84;100.00;95694.97;5016745;28;20418;-71
2021/01/28 04:56:21;;;;;;;47.33;19.03;;;;;;;1.82;100.00;95696.09;5016582;28;20207;-71
2021/01/28 04:58:49;;;;;;;46.70;16.73;;;;;;;1.83;100.00;95698.56;5016570;28;20243;-72
2021/01/28 05:01:15;;;;;;;49.07;19.63;;;;;;;1.80;100.00;95691.00;5017016;28;20200;-71
2021/01/28 05:03:46;;;;;;;46.23;17.23;;;;;;;1.80;100.00;95693.63;5016732;28;20231;-72
2021/01/28 05:06:13;;;;;;;55.40;19.90;;;;;;;1.82;100.00;95685.72;5015916;28;20259;-71
2021/01/28 05:08:39;;;;;;;60.13;23.80;;;;;;;1.82;100.00;95685.72;5016284;28;20253;-72
2021/01/28 05:11:21;;;;;;;60.27;20.77;;;;;;;1.84;100.00;95670.78;5016689;28;20212;-70
2021/01/28 05:13:47;;;;;;;49.67;18.27;;;;;;;1.86;100.00;95671.47;5016908;28;20210;-73
2021/01/28 05:16:23;;;;;;;45.93;16.43;;;;;;;1.84;100.00;95657.81;5016179;28;20234;-71
2021/01/28 05:18:57;;;;;;;54.30;19.07;;;;;;;1.85;100.00;95651.66;5016367;28;20303;-70
2021/01/28 05:21:26;;;;;;;44.33;17.20;;;;;;;1.85;100.00;95644.66;5020693;28;20211;-71
2021/01/28 05:24:01;;;;;;;51.00;19.37;;;;;;;1.84;100.00;95643.03;5020802;28;20234;-71
2021/01/28 05:26:35;;;;;;;100.87;26.97;;;;;;;1.83;100.00;95641.41;5020076;28;20208;-71
2021/01/28 05:29:24;;;;;;;66.57;25.90;;;;;;;1.90;100.00;95641.66;5020225;28;20209;-72
2021/01/28 05:31:54;;;;;;;34.67;13.90;;;;;;;1.93;100.00;95637.00;5016136;28;20267;-71
2021/01/28 05:34:23;;;;;;;46.30;15.90;;;;;;;1.88;100.00;95636.63;5020331;28;20867;-72
2021/01/28 05:36:54;;;;;;;57.40;19.47;;;;;;;1.92;100.00;95630.19;5019657;28;20290;-70
2021/01/28 05:39:31;;;;;;;79.53;24.70;;;;;;;1.90;100.00;95619.09;5020622;28;20573;-71
2021/01/28 05:42:24;;;;;;;64.37;25.43;;;;;;;1.94;100.00;95614.44;5019988;28;20205;-71
2021/01/28 05:44:51;;;;;;;51.43;17.60;;;;;;;1.95;100.00;95618.69;5006972;28;20209;-72
2021/01/28 05:47:26;;;;;;;51.57;17.33;;;;;;;1.94;100.00;95615.25;5019168;28;20236;-71
2021/01/28 05:49:53;;;;;;;49.37;17.73;;;;;;;1.91;100.00;95612.94;5020382;28;20258;-71
2021/01/28 05:52:28;;;;;;;49.03;16.57;;;;;;;1.90;100.00;95613.91;5020625;28;20213;-70
2021/01/28 05:55:07;;;;;;;43.73;15.93;;;;;;;1.91;100.00;95609.56;5020083;28;20746;-71
2021/01/28 05:57:41;;;;;;;45.27;16.40;;;;;;;1.96;100.00;95604.72;5019732;28;20233;-71
2021/01/28 06:00:15;;;;;;;46.67;16.43;;;;;;;1.94;100.00;95594.47;5019806;28;20251;-71
2021/01/28 06:03:02;;;;;;;41.50;15.03;;;;;;;1.95;100.00;95584.94;5020437;28;21185;-72
2021/01/28 06:05:40;;;;;;;57.37;17.90;;;;;;;1.95;100.00;95583.13;5019141;28;20216;-71
2021/01/28 06:08:30;;;;;;;52.27;18.50;;;;;;;2.00;100.00;95580.13;5019962;28;20221;-71
2021/01/28 06:11:11;;;;;;;40.23;15.07;;;;;;;2.05;100.00;95575.31;5020161;28;20209;-71
2021/01/28 06:14:24;;;;;;;47.33;16.57;;;;;;;2.04;100.00;95566.69;5019383;28;20205;-71
2021/01/28 06:17:04;;;;;;;48.63;17.43;;;;;;;2.02;100.00;95562.59;5008693;28;20240;-71
2021/01/28 06:19:56;;;;;;;34.50;13.97;;;;;;;2.05;100.00;95551.91;5019849;28;20273;-70
2021/01/28 06:22:38;;;;;;;40.20;14.10;;;;;;;2.01;100.00;95553.16;5019469;28;20572;-74
2021/01/28 06:25:34;;;;;;;30.03;13.53;;;;;;;2.01;100.00;95550.56;5019198;28;20212;-71
2021/01/28 06:28:17;;;;;;;28.90;12.73;;;;;;;2.00;100.00;95551.56;5018935;28;20222;-71
2021/01/28 06:30:53;;;;;;;35.37;12.40;;;;;;;2.01;100.00;95550.56;5018723;28;20766;-71
2021/01/28 06:33:45;;;;;;;33.23;12.30;;;;;;;1.99;100.00;95540.31;5019597;28;20197;-71
2021/01/28 06:36:25;;;;;;;42.93;17.37;;;;;;;2.02;100.00;95537.44;5018042;28;20267;-71
2021/01/28 06:39:05;;;;;;;37.60;15.63;;;;;;;2.02;100.00;95534.84;5018802;28;20228;-71
2021/01/28 06:41:35;;;;;;;29.10;11.57;;;;;;;2.03;100.00;95527.88;5019580;28;20218;-71
2021/01/28 06:44:06;;;;;;;51.03;12.93;;;;;;;2.00;100.00;95520.38;5018741;28;20232;-70
2021/01/28 06:46:43;;;;;;;32.17;12.53;;;;;;;2.03;100.00;95520.88;5018697;28;20207;-72
2021/01/28 06:49:28;;;;;;;24.97;10.30;;;;;;;2.05;100.00;95520.75;5018944;28;20216;-71
2021/01/28 06:52:07;;;;;;;32.17;12.33;;;;;;;2.04;100.00;95516.53;5016411;28;20210;-73
2021/01/28 06:54:45;;;;;;;32.27;12.60;;;;;;;2.05;100.00;95510.34;5019542;28;20265;-70
2021/01/28 06:57:21;;;;;;;28.83;11.33;;;;;;;2.12;100.00;95511.44;5018512;28;20596;-71
2021/01/28 06:59:57;;;;;;;30.10;11.47;;;;;;;2.13;100.00;95513.06;5018626;28;20712;-70
2021/01/28 07:02:51;;;;;;;34.17;11.87;;;;;;;2.15;100.00;95500.72;5018997;28;20228;-70
2021/01/28 07:05:43;;;;;;;33.80;12.83;;;;;;;2.19;100.00;95497.72;5018841;28;20700;-70
2021/01/28 07:08:21;;;;;;;28.17;11.17;;;;;;;2.23;100.00;95498.22;5018499;28;20287;-70
2021/01/28 07:10:47;;;;;;;28.37;11.90;;;;;;;2.23;100.00;95493.03;5018589;28;20213;-73
2021/01/28 07:13:19;;;;;;;30.37;11.50;;;;;;;2.26;100.00;95488.38;5019447;28;20202;-71
2021/01/28 07:15:48;;;;;;;24.67;11.27;;;;;;;2.31;100.00;95493.16;5018137;28;20205;-72
2021/01/28 07:18:23;;;;;;;30.73;10.83;;;;;;;2.34;100.00;95479.84;5018459;28;20224;-70
2021/01/28 07:21:00;;;;;;;23.43;10.90;;;;;;;2.34;100.00;95485.03;5018813;28;20216;-71
2021/01/28 07:23:29;;;;;;;25.33;9.73;;;;;;;2.33;100.00;95483.41;5018879;28;21237;-72
2021/01/28 07:26:08;;;;;;;23.37;9.23;;;;;;;2.35;100.00;95476.28;5017502;28;20209;-72
2021/01/28 07:28:34;;;;;;;22.20;9.37;;;;;;;2.37;100.00;95463.94;5018348;28;20236;-72
2021/01/28 07:31:43;;;;;;;21.30;8.63;;;;;;;2.34;100.00;95454.66;5019284;28;20200;-71
2021/01/28 07:34:15;;;;;;;22.80;9.57;;;;;;;2.38;100.00;95455.19;5017931;28;20579;-70
2021/01/28 07:36:47;;;;;;;22.57;10.73;;;;;;;2.36;100.00;95446.75;5017567;28;20632;-70
2021/01/28 07:39:37;;;;;;;26.90;11.77;;;;;;;2.41;100.00;95450.53;5018438;28;20636;-70
2021/01/28 07:42:08;;;;;;;26.25;10.60;;;;;;;2.45;100.00;95438.88;5018014;28;20219;-73
2021/01/28 07:44:49;;;;;;;27.73;10.93;;;;;;;2.46;100.00;95438.72;5018235;28;20430;-71
2021/01/28 07:47:47;;;;;;;22.17;9.63;;;;;;;2.54;100.00;95436.19;5016957;28;20551;-70
2021/01/28 07:50:43;;;;;;;21.63;10.07;;;;;;;2.53;100.00;95431.97;5014044;28;20261;-72
2021/01/28 07:53:35;;;;;;;23.97;10.93;;;;;;;2.55;100.00;95426.63;5017745;28;20198;-70
2021/01/28 07:56:03;;;;;;;26.03;11.57;;;;;;;2.57;100.00;95424.66;5017202;28;20286;-70
2021/01/28 07:58:32;;;;;;;25.87;10.83;;;;;;;2.61;100.00;95418.19;5017936;28;20237;-70
2021/01/28 08:01:03;;;;;;;26.53;10.47;;;;;;;2.68;100.00;95421.84;5017200;28;20209;-70
2021/01/28 08:03:34;;;;;;;25.23;10.40;;;;;;;2.66;100.00;95409.00;5017476;28;20233;-70
2021/01/28 08:06:06;;;;;;;22.33;10.60;;;;;;;2.64;100.00;95410.13;5017702;28;20219;-70
2021/01/28 08:08:33;;;;;;;22.77;9.30;;;;;;;2.59;100.00;95417.56;5018054;28;20295;-71
2021/01/28 08:11:14;;;;;;;22.63;10.57;;;;;;;2.66;100.00;95413.38;5017568;28;20206;-72
2021/01/28 08:13:41;;;;;;;23.37;10.47;;;;;;;2.65;100.00;95402.16;5018138;28;20228;-70
2021/01/28 08:16:13;;;;;;;21.23;11.17;;;;;;;2.68;100.00;95395.84;5016811;28;20747;-70
2021/01/28 08:18:42;;;;;;;23.73;12.00;;;;;;;2.70;100.00;95392.13;5017203;28;20715;-70
2021/01/28 08:21:12;;;;;;;23.73;11.40;;;;;;;2.76;100.00;95388.94;5017778;28;20208;-70
2021/01/28 08:23:40;;;;;;;22.53;11.53;;;;;;;2.81;100.00;95391.88;5017495;28;20225;-70
2021/01/28 08:26:08;;;;;;;23.23;11.27;;;;;;;2.88;100.00;95390.31;5016485;28;20220;-70
2021/01/28 08:28:38;;;;;;;24.67;11.57;;;;;;;2.91;100.00;95382.22;5017325;28;20236;-72
2021/01/28 08:31:15;;;;;;;25.77;12.33;;;;;;;2.92;100.00;95377.84;5016891;28;21293;-71
2021/01/28 08:33:43;;;;;;;23.37;11.30;;;;;;;2.93;100.00;95380.28;5017162;28;20241;-70
2021/01/28 08:36:20;;;;;;;24.60;11.93;;;;;;;2.90;100.00;95375.38;5016347;28;20768;-72
2021/01/28 08:38:47;;;;;;;26.33;11.20;;;;;;;2.90;100.00;95375.38;5012832;28;20226;-71
2021/01/28 08:41:15;;;;;;;28.17;12.13;;;;;;;2.96;100.00;95361.75;5016452;28;20267;-71
2021/01/28 08:43:42;;;;;;;22.70;11.17;;;;;;;3.00;100.00;95360.47;5016102;28;20236;-71
2021/01/28 08:46:11;;;;;;;25.67;10.60;;;;;;;2.99;100.00;95364.03;5016220;28;20271;-71
2021/01/28 08:48:38;;;;;;;21.13;8.63;;;;;;;3.06;100.00;95358.09;5016245;28;20290;-71
2021/01/28 08:51:08;;;;;;;17.40;8.80;;;;;;;3.07;100.00;95351.13;5016322;28;20214;-72
2021/01/28 08:53:35;;;;;;;14.57;7.43;;;;;;;3.10;100.00;95345.59;5016173;28;20210;-71
2021/01/28 08:56:08;;;;;;;10.10;5.50;;;;;;;3.15;100.00;95336.34;5015637;28;20669;-71
2021/01/28 08:58:40;;;;;;;12.70;6.27;;;;;;;3.14;100.00;95336.50;5015776;28;20712;-72
2021/01/28 09:01:08;;;;;;;9.63;5.07;;;;;;;3.14;100.00;95337.34;5016243;28;20202;-71
2021/01/28 09:03:40;;;;;;;10.67;4.70;;;;;;;3.18;100.00;95335.22;5016034;28;20276;-71
2021/01/28 09:06:06;;;;;;;7.77;4.30;;;;;;;3.22;100.00;95318.31;5015409;28;20665;-71
2021/01/28 09:08:34;;;;;;;8.20;4.40;;;;;;;3.26;100.00;95322.25;5016007;28;20238;-71
2021/01/28 09:11:16;;;;;;;6.53;3.87;;;;;;;3.27;100.00;95321.28;5016404;28;20202;-71
2021/01/28 09:14:00;;;;;;;10.33;4.33;;;;;;;3.28;100.00;95315.09;5016206;28;20220;-71
2021/01/28 09:16:27;;;;;;;12.80;4.67;;;;;;;3.32;100.00;95308.63;5015491;28;20220;-71
2021/01/28 09:18:54;;;;;;;9.83;4.27;;;;;;;3.32;100.00;95303.41;5015781;28;20197;-71
2021/01/28 09:21:22;;;;;;;10.77;5.13;;;;;;;3.35;100.00;95308.31;5016283;28;20271;-71
2021/01/28 09:23:56;;;;;;;7.73;4.33;;;;;;;3.46;100.00;95285.41;5016299;28;20233;-71
2021/01/28 09:26:25;;;;;;;6.70;4.57;;;;;;;3.47;100.00;95286.22;5015423;28;20201;-71
2021/01/28 09:28:51;;;;;;;8.97;4.17;;;;;;;3.47;100.00;95273.22;5016416;28;20283;-71
2021/01/28 09:31:29;;;;;;;7.03;4.47;;;;;;;3.51;100.00;95269.31;5016069;28;20205;-71
2021/01/28 09:33:56;;;;;;;7.57;4.70;;;;;;;3.47;100.00;95255.78;5015728;28;20205;-71
2021/01/28 09:36:26;;;;;;;6.93;3.90;;;;;;;3.52;100.00;95250.13;5016298;28;20205;-71
2021/01/28 09:39:00;;;;;;;5.37;2.73;;;;;;;3.54;100.00;95250.75;5015734;28;20391;-72
2021/01/28 09:41:28;;;;;;;6.80;3.27;;;;;;;3.55;100.00;95247.19;5015691;28;20206;-71
2021/01/28 09:43:54;;;;;;;6.47;3.70;;;;;;;3.60;100.00;95245.72;5015838;28;20232;-71
2021/01/28 09:46:30;;;;;;;7.07;3.50;;;;;;;3.66;100.00;95235.47;5014997;28;20557;-71
2021/01/28 09:48:59;;;;;;;8.83;4.40;;;;;;;3.72;100.00;95229.66;5015989;28;21152;-71
2021/01/28 09:51:29;;;;;;;7.00;3.10;;;;;;;3.75;100.00;95228.50;5015857;28;20206;-70
2021/01/28 09:54:15;;;;;;;5.83;3.50;;;;;;;3.75;100.00;95216.28;5015879;28;20649;-71
2021/01/28 09:56:42;;;;;;;7.53;3.70;;;;;;;3.76;100.00;95207.50;5014501;28;20945;-70
2021/01/28 09:59:08;;;;;;;5.37;3.23;;;;;;;3.78;100.00;95202.97;5015812;28;20688;-71
2021/01/28 10:01:34;;;;;;;7.63;3.07;;;;;;;3.79;100.00;95196.78;5015725;28;20214;-71
2021/01/28 10:04:01;;;;;;;4.17;2.77;;;;;;;3.82;100.00;95193.03;5015812;28;20337;-71
2021/01/28 10:06:27;;;;;;;4.83;2.60;;;;;;;3.84;100.00;95191.88;5015801;28;20209;-71
2021/01/28 10:08:53;;;;;;;4.27;2.63;;;;;;;3.91;100.00;95181.66;5019767;28;20661;-71
2021/01/28 10:11:19;;;;;;;3.73;2.30;;;;;;;3.89;100.00;95179.19;5019088;28;20677;-71
2021/01/28 10:13:45;;;;;;;4.97;2.87;;;;;;;3.89;100.00;95176.56;5019454;28;20579;-71
2021/01/28 10:16:11;;;;;;;3.63;2.40;;;;;;;3.89;100.00;95171.38;5018905;28;20200;-71
2021/01/28 10:18:37;;;;;;;6.30;2.23;;;;;;;3.92;100.00;95173.66;5019438;28;20221;-70
2021/01/28 10:21:05;;;;;;;4.27;2.07;;;;;;;3.92;100.00;95173.66;5019092;28;20292;-71
2021/01/28 10:23:32;;;;;;;6.63;2.63;;;;;;;3.95;100.00;95168.13;5019410;28;20229;-71
2021/01/28 10:25:57;;;;;;;4.93;2.67;;;;;;;3.99;100.00;95169.41;5018690;28;20210;-70
2021/01/28 10:28:23;;;;;;;4.50;2.13;;;;;;;4.08;100.00;95167.63;5019346;28;20395;-71
2021/01/28 10:30:49;;;;;;;3.80;2.57;;;;;;;4.04;100.00;95161.13;5019411;28;20202;-71
2021/01/28 10:33:15;;;;;;;5.80;2.97;;;;;;;4.01;100.00;95162.25;5019070;28;20198;-71
2021/01/28 10:35:42;;;;;;;7.70;2.97;;;;;;;4.02;100.00;95145.66;5018114;28;20297;-71
2021/01/28 10:38:10;;;;;;;3.83;2.20;;;;;;;4.02;100.00;95143.06;5019530;28;20253;-70
2021/01/28 10:40:36;;;;;;;5.57;2.00;;;;;;;3.97;100.00;95132.31;5018193;28;20201;-71
2021/01/28 10:43:06;;;;;;;3.97;2.17;;;;;;;4.02;100.00;95130.03;5018601;28;20222;-71
2021/01/28 10:45:35;;;;;;;4.40;2.03;;;;;;;4.07;100.00;95125.09;5018041;28;20288;-71
2021/01/28 10:48:01;;;;;;;2.83;1.57;;;;;;;4.12;100.00;95108.97;5019619;28;20671;-71
2021/01/28 10:50:28;;;;;;;2.20;1.50;;;;;;;4.17;100.00;95115.31;5018306;28;20220;-70
2021/01/28 10:52:54;;;;;;;2.90;1.80;;;;;;;4.18;100.00;95108.31;5018296;28;20221;-71
2021/01/28 10:55:23;;;;;;;1.93;1.50;;;;;;;4.15;100.00;95106.88;5018290;28;20626;-71
2021/01/28 10:57:49;;;;;;;2.23;1.80;;;;;;;4.21;100.00;95105.38;5019121;28;20591;-71
2021/01/28 11:00:16;;;;;;;2.13;1.50;;;;;;;4.24;100.00;95100.66;5018092;28;20226;-70
2021/01/28 11:02:43;;;;;;;2.43;1.80;;;;;;;4.27;100.00;95103.72;5018511;28;20288;-70
2021/01/28 11:05:14;;;;;;;2.60;1.27;;;;;;;4.30;100.00;95106.00;5017855;28;20198;-70
2021/01/28 11:07:40;;;;;;;1.80;1.40;;;;;;;4.23;100.00;95094.59;5018497;28;20284;-70
2021/01/28 11:10:07;;;;;;;3.00;1.73;;;;;;;4.20;100.00;95088.94;5018050;28;20863;-70
2021/01/28 11:12:34;;;;;;;1.90;1.63;;;;;;;4.25;100.00;95095.28;5018178;28;20214;-70
2021/01/28 11:15:00;;;;;;;3.33;1.97;;;;;;;4.22;100.00;95091.38;5017910;28;20206;-71
2021/01/28 11:17:26;;;;;;;4.10;2.50;;;;;;;4.21;100.00;95098.34;5018106;28;20249;-70
2021/01/28 11:19:52;;;;;;;3.53;1.90;;;;;;;4.23;100.00;95094.59;5017907;28;20658;-70
2021/01/28 11:22:18;;;;;;;3.10;2.07;;;;;;;4.20;100.00;95091.53;5018157;28;20579;-70
2021/01/28 11:24:45;;;;;;;2.97;1.60;;;;;;;4.17;100.00;95078.03;5018015;28;20797;-70
2021/01/28 11:27:11;;;;;;;2.77;1.90;;;;;;;4.10;100.00;95077.88;5017771;28;20275;-70
2021/01/28 11:29:38;;;;;;;3.90;2.27;;;;;;;4.12;100.00;95081.09;5018305;28;20213;-70
2021/01/28 11:32:04;;;;;;;3.10;2.30;;;;;;;4.05;100.00;95080.16;5018506;28;20229;-70
2021/01/28 11:34:31;;;;;;;3.27;1.97;;;;;;;4.13;100.00;95074.91;5017135;28;20201;-70
2021/01/28 11:36:57;;;;;;;3.60;2.50;;;;;;;4.14;100.00;95058.31;5017670;28;20279;-70